Time;durP1;ratioP1;P1;durP2;ratioP2;P2;SDS_P1;SDS_P2;PMS_P1;PMS_P2;Temp;Humidity;BMP_temperature;BMP_pressure;BME280_temperature;BME280_humidity;BME280_pressure;Samples;Min_cycle;Max_cycle;Signal;HPM_P1;HPM_P2
2022/02/18 00:00:05;;;;;;;22.20;13.57;;;;;;;1.31;100.00;96669.53;4973058;28;20463;-65
2022/02/18 00:02:30;;;;;;;22.17;14.43;;;;;;;1.27;100.00;96658.38;4972925;28;20051;-63
2022/02/18 00:04:56;;;;;;;21.08;12.93;;;;;;;1.30;100.00;96658.03;4973030;28;20050;-64
2022/02/18 00:07:22;;;;;;;21.63;13.18;;;;;;;1.26;100.00;96663.88;4989150;28;20566;-64
2022/02/18 00:09:47;;;;;;;23.75;13.65;;;;;;;1.13;100.00;96645.75;4989061;28;20065;-64
2022/02/18 00:12:15;;;;;;;22.08;15.13;;;;;;;1.30;100.00;96654.56;4956662;28;20137;-64
2022/02/18 00:14:51;;;;;;;25.65;13.82;;;;;;;1.26;100.00;96650.56;4974319;28;20098;-64
2022/02/18 00:17:19;;;;;;;21.85;13.38;;;;;;;1.28;100.00;96656.53;4972977;28;20388;-63
2022/02/18 00:19:45;;;;;;;22.05;14.13;;;;;;;1.30;100.00;96667.88;4974108;28;20046;-64
2022/02/18 00:22:11;;;;;;;25.20;16.23;;;;;;;1.29;100.00;96661.72;4972458;28;20046;-62
2022/02/18 00:24:37;;;;;;;23.13;14.27;;;;;;;1.29;100.00;96652.91;4974079;28;20065;-63
2022/02/18 00:27:03;;;;;;;21.55;13.15;;;;;;;1.29;100.00;96655.56;4974236;28;20042;-63
2022/02/18 00:29:28;;;;;;;23.38;13.75;;;;;;;1.25;100.00;96649.75;5003211;28;20046;-64
2022/02/18 00:31:58;;;;;;;23.58;14.68;;;;;;;1.25;100.00;96643.59;5012873;28;20211;-64
2022/02/18 00:34:24;;;;;;;24.17;14.95;;;;;;;1.25;100.00;96646.25;5011423;28;20449;-64
2022/02/18 00:36:50;;;;;;;22.92;12.73;;;;;;;1.24;100.00;96633.94;4989392;28;20410;-63
2022/02/18 00:39:16;;;;;;;24.98;15.60;;;;;;;1.22;100.00;96643.94;5007159;28;20585;-64
2022/02/18 00:41:43;;;;;;;24.90;15.93;;;;;;;1.21;100.00;96637.78;4974693;28;20084;-64
2022/02/18 00:44:10;;;;;;;25.63;14.50;;;;;;;1.23;100.00;96645.59;4976134;28;20046;-63
2022/02/18 00:46:36;;;;;;;26.70;17.17;;;;;;;1.17;100.00;96629.31;4993610;28;20407;-63
2022/02/18 00:49:01;;;;;;;27.35;16.13;;;;;;;1.20;100.00;96636.91;4993529;28;20498;-64
2022/02/18 00:51:27;;;;;;;25.63;15.07;;;;;;;1.16;100.00;96635.59;5008262;28;20081;-63
2022/02/18 00:53:53;;;;;;;25.63;13.07;;;;;;;1.20;100.00;96639.59;4992586;28;20466;-62
2022/02/18 00:56:19;;;;;;;26.25;16.15;;;;;;;1.12;100.00;96612.16;4992860;28;20051;-63
2022/02/18 00:58:45;;;;;;;24.02;14.20;;;;;;;1.14;100.00;96631.47;4991502;28;20046;-64
2022/02/18 01:01:10;;;;;;;25.05;15.23;;;;;;;1.23;100.00;96648.25;4993252;28;20054;-64
2022/02/18 01:03:36;;;;;;;24.15;14.10;;;;;;;1.24;100.00;96641.91;4991135;28;20188;-64
2022/02/18 01:06:03;;;;;;;23.40;13.38;;;;;;;1.26;100.00;96653.22;4974716;28;20138;-63
2022/02/18 01:08:28;;;;;;;24.08;14.30;;;;;;;1.27;100.00;96653.06;4975283;28;20047;-64
2022/02/18 01:10:54;;;;;;;23.23;13.27;;;;;;;1.29;100.00;96644.94;4991138;28;20057;-64
2022/02/18 01:13:20;;;;;;;21.33;11.55;;;;;;;1.38;100.00;96665.19;4974991;28;20087;-63
2022/02/18 01:15:46;;;;;;;22.25;10.45;;;;;;;1.34;100.00;96650.56;4992304;28;20410;-62
2022/02/18 01:18:12;;;;;;;21.00;12.63;;;;;;;1.41;100.00;96670.19;4991229;28;20458;-64
2022/02/18 01:20:38;;;;;;;23.88;13.30;;;;;;;1.37;100.00;96655.56;4990781;28;20046;-64
2022/02/18 01:23:04;;;;;;;19.92;10.57;;;;;;;1.31;100.00;96650.88;4975106;28;20042;-64
2022/02/18 01:25:34;;;;;;;21.13;10.85;;;;;;;1.37;100.00;96655.56;4975405;28;20520;-63
2022/02/18 01:28:03;;;;;;;21.58;13.38;;;;;;;1.38;100.00;96663.34;4991058;28;20062;-64
2022/02/18 01:30:29;;;;;;;21.63;11.50;;;;;;;1.41;100.00;96670.19;4991193;28;20515;-63
2022/02/18 01:32:55;;;;;;;20.67;12.10;;;;;;;1.44;100.00;96669.84;5007608;28;20521;-63
2022/02/18 01:35:21;;;;;;;20.60;10.38;;;;;;;1.44;100.00;96669.84;4991329;28;20383;-63
2022/02/18 01:37:51;;;;;;;19.73;10.10;;;;;;;1.39;100.00;96672.16;4974456;28;20502;-64
2022/02/18 01:40:18;;;;;;;22.02;14.88;;;;;;;1.34;100.00;96663.88;4995885;28;20120;-62
2022/02/18 01:42:43;;;;;;;20.88;12.05;;;;;;;1.42;100.00;96677.16;4976207;28;20086;-64
2022/02/18 01:45:10;;;;;;;19.30;10.75;;;;;;;1.44;100.00;96680.50;4985863;28;20426;-64
2022/02/18 01:47:36;;;;;;;20.30;10.73;;;;;;;1.45;100.00;96682.16;4976982;28;20540;-64
2022/02/18 01:50:04;;;;;;;19.77;9.98;;;;;;;1.47;100.00;96692.66;5003681;28;20411;-63
2022/02/18 01:52:35;;;;;;;19.05;9.85;;;;;;;1.48;100.00;96681.81;4990533;28;20487;-62
2022/02/18 01:55:10;;;;;;;20.98;11.30;;;;;;;1.49;100.00;96678.16;4997090;28;20140;-63
2022/02/18 01:57:42;;;;;;;20.52;11.35;;;;;;;1.50;100.00;96689.63;4995517;28;20057;-65
2022/02/18 02:00:09;;;;;;;21.70;10.52;;;;;;;1.48;100.00;96675.69;5004797;28;20096;-64
2022/02/18 02:02:40;;;;;;;19.20;12.02;;;;;;;1.50;100.00;96690.50;4989724;28;20128;-64
2022/02/18 02:05:07;;;;;;;21.38;11.50;;;;;;;1.51;100.00;96678.84;4999725;28;20076;-64
2022/02/18 02:07:34;;;;;;;20.60;12.85;;;;;;;1.50;100.00;96695.81;4991878;28;20499;-64
2022/02/18 02:10:00;;;;;;;19.10;12.40;;;;;;;1.51;100.00;96692.16;4990191;28;20045;-64
2022/02/18 02:12:52;;;;;;;21.83;11.77;;;;;;;1.50;100.00;96685.16;4982691;28;20385;-64
2022/02/18 02:15:36;;;;;;;20.63;12.90;;;;;;;1.31;100.00;96658.88;4986949;28;20042;-64
2022/02/18 02:18:03;;;;;;;24.45;14.05;;;;;;;1.40;100.00;96695.16;5007035;28;20489;-65
2022/02/18 02:20:29;;;;;;;21.98;13.60;;;;;;;1.51;100.00;96709.94;4979020;28;20100;-63
2022/02/18 02:22:55;;;;;;;22.38;12.45;;;;;;;1.49;100.00;96703.94;4974902;28;20047;-65
2022/02/18 02:25:21;;;;;;;21.90;14.02;;;;;;;1.44;100.00;96685.81;4988868;28;20049;-64
2022/02/18 02:27:48;;;;;;;25.48;12.52;;;;;;;1.34;100.00;96680.66;4966878;28;20049;-64
2022/02/18 02:30:15;;;;;;;24.52;14.27;;;;;;;1.44;100.00;96699.13;4987063;28;20037;-63
2022/02/18 02:32:41;;;;;;;23.75;14.48;;;;;;;1.39;100.00;96714.75;4978498;28;20042;-63
2022/02/18 02:35:07;;;;;;;26.08;14.75;;;;;;;1.20;100.00;96679.50;4997935;28;20089;-63
2022/02/18 02:37:34;;;;;;;25.83;13.45;;;;;;;1.13;100.00;96683.84;4983165;28;20065;-66
2022/02/18 02:40:00;;;;;;;24.42;13.95;;;;;;;1.19;100.00;96688.47;5009327;28;20049;-63
2022/02/18 02:42:33;;;;;;;27.48;14.05;;;;;;;1.34;100.00;96712.59;4971730;28;20413;-65
2022/02/18 02:45:06;;;;;;;26.45;15.23;;;;;;;1.20;100.00;96692.78;5000029;28;20037;-65
2022/02/18 02:47:32;;;;;;;29.50;14.50;;;;;;;1.32;100.00;96719.09;5004481;28;20489;-65
2022/02/18 02:50:09;;;;;;;27.33;15.85;;;;;;;1.31;100.00;96723.56;5003387;28;20512;-65
2022/02/18 02:52:36;;;;;;;23.98;13.13;;;;;;;1.36;100.00;96726.59;4971739;28;20042;-66
2022/02/18 02:55:10;;;;;;;24.08;14.75;;;;;;;1.31;100.00;96726.22;4988200;28;20049;-63
2022/02/18 02:57:38;;;;;;;23.83;11.70;;;;;;;1.34;100.00;96725.06;4984731;28;20095;-64
2022/02/18 03:00:05;;;;;;;26.33;13.60;;;;;;;1.33;100.00;96723.41;4982341;28;20034;-64
2022/02/18 03:02:32;;;;;;;24.30;15.40;;;;;;;1.33;100.00;96748.19;4986019;28;20046;-62
2022/02/18 03:04:57;;;;;;;24.13;14.43;;;;;;;1.30;100.00;96729.06;4966942;28;20096;-63
2022/02/18 03:07:24;;;;;;;26.35;12.73;;;;;;;1.29;100.00;96735.41;4987999;28;20206;-64
2022/02/18 03:10:10;;;;;;;20.65;10.60;;;;;;;1.29;100.00;96743.38;4985819;28;20460;-65
2022/02/18 03:12:36;;;;;;;21.00;9.80;;;;;;;1.32;100.00;96751.03;4972515;28;20739;-64
2022/02/18 03:15:13;;;;;;;24.90;15.73;;;;;;;1.31;100.00;96754.69;4999940;28;20046;-65
2022/02/18 03:17:40;;;;;;;25.88;13.88;;;;;;;1.27;100.00;96748.84;4992343;28;20201;-64
2022/02/18 03:20:23;;;;;;;23.33;13.77;;;;;;;1.15;100.00;96734.22;4972362;28;20103;-64
2022/02/18 03:22:50;;;;;;;22.83;13.80;;;;;;;1.25;100.00;96740.22;4960692;28;20082;-65
2022/02/18 03:25:15;;;;;;;23.02;14.43;;;;;;;1.24;100.00;96756.31;4997741;28;20076;-65
2022/02/18 03:27:42;;;;;;;24.35;14.15;;;;;;;1.08;100.00;96722.56;4992766;28;20047;-64
2022/02/18 03:30:11;;;;;;;23.95;13.45;;;;;;;1.22;100.00;96745.84;4964367;28;20046;-64
2022/02/18 03:32:37;;;;;;;22.92;13.32;;;;;;;1.16;100.00;96736.69;5002071;28;20689;-64
2022/02/18 03:35:05;;;;;;;23.13;14.07;;;;;;;1.22;100.00;96750.34;4963719;28;20172;-64
2022/02/18 03:37:36;;;;;;;20.77;11.93;;;;;;;1.18;100.00;96749.84;5006614;28;20039;-65
2022/02/18 03:40:16;;;;;;;24.20;14.65;;;;;;;1.19;100.00;96762.97;4989360;28;20129;-66
2022/02/18 03:42:42;;;;;;;23.33;13.35;;;;;;;1.19;100.00;96757.66;4978470;28;20136;-63
2022/02/18 03:45:09;;;;;;;24.50;13.10;;;;;;;1.24;100.00;96753.66;4966349;28;20037;-66
2022/02/18 03:47:35;;;;;;;26.02;13.90;;;;;;;1.22;100.00;96755.69;4995864;28;20050;-63
2022/02/18 03:50:03;;;;;;;21.75;13.07;;;;;;;1.22;100.00;96766.31;4975752;28;20054;-66
2022/02/18 03:52:29;;;;;;;25.10;14.93;;;;;;;1.21;100.00;96768.16;4987394;28;20038;-64
2022/02/18 03:54:55;;;;;;;26.73;14.95;;;;;;;1.24;100.00;96769.63;4986411;28;20129;-65
2022/02/18 03:57:21;;;;;;;28.88;15.48;;;;;;;1.20;100.00;96774.44;4988671;28;20134;-65
2022/02/18 03:59:48;;;;;;;25.50;12.90;;;;;;;1.19;100.00;96759.50;5005794;28;20097;-64
2022/02/18 04:02:15;;;;;;;29.95;16.65;;;;;;;1.21;100.00;96786.78;4972081;28;20054;-63
2022/02/18 04:04:41;;;;;;;30.00;17.73;;;;;;;1.22;100.00;96784.94;4972465;28;20069;-64
2022/02/18 04:07:29;;;;;;;28.45;17.40;;;;;;;1.20;100.00;96780.59;4988205;28;20058;-66
2022/02/18 04:10:00;;;;;;;28.60;14.50;;;;;;;1.24;100.00;96790.91;4988368;28;20038;-64
2022/02/18 04:12:30;;;;;;;30.60;17.75;;;;;;;1.08;100.00;96754.47;4957870;28;20061;-65
2022/02/18 04:15:10;;;;;;;31.13;18.70;;;;;;;1.17;100.00;96780.09;4989103;28;20073;-68
2022/02/18 04:17:37;;;;;;;33.83;14.95;;;;;;;1.15;100.00;96782.94;4939919;28;20392;-65
2022/02/18 04:20:11;;;;;;;32.17;17.38;;;;;;;1.18;100.00;96787.94;4961751;28;20054;-64
2022/02/18 04:22:57;;;;;;;35.60;18.73;;;;;;;1.19;100.00;96789.59;4978815;28;20058;-64
2022/02/18 04:25:31;;;;;;;37.17;20.40;;;;;;;1.20;100.00;96791.25;4976834;28;20046;-65
2022/02/18 04:28:02;;;;;;;39.78;18.95;;;;;;;1.14;100.00;96794.56;4975682;28;20286;-64
2022/02/18 04:30:28;;;;;;;41.25;21.05;;;;;;;1.13;100.00;96800.91;4991927;28;20056;-64
2022/02/18 04:32:54;;;;;;;40.10;20.35;;;;;;;1.10;100.00;96795.91;4975779;28;20054;-64
2022/02/18 04:35:20;;;;;;;43.95;23.42;;;;;;;1.14;100.00;96805.22;4976256;28;20498;-66
2022/02/18 04:37:47;;;;;;;46.28;24.80;;;;;;;1.13;100.00;96802.69;4959393;28;20053;-65
2022/02/18 04:40:14;;;;;;;42.05;21.58;;;;;;;1.12;100.00;96807.19;4975522;28;20129;-65
2022/02/18 04:42:40;;;;;;;41.53;21.48;;;;;;;1.14;100.00;96807.88;4975602;28;20054;-65
2022/02/18 04:45:06;;;;;;;40.88;19.92;;;;;;;1.14;100.00;96813.19;4975426;28;20050;-65
2022/02/18 04:47:33;;;;;;;45.28;25.33;;;;;;;1.14;100.00;96813.19;4991550;28;20046;-65
2022/02/18 04:50:03;;;;;;;42.75;22.17;;;;;;;1.15;100.00;96824.66;4960157;28;20057;-64
2022/02/18 04:52:29;;;;;;;38.65;17.92;;;;;;;1.09;100.00;96820.81;5007989;28;20075;-64
2022/02/18 04:54:55;;;;;;;40.65;20.45;;;;;;;1.13;100.00;96822.19;4975587;28;20430;-65
2022/02/18 04:57:21;;;;;;;43.25;20.85;;;;;;;1.14;100.00;96823.84;4988785;28;20042;-67
2022/02/18 04:59:47;;;;;;;40.45;18.33;;;;;;;1.13;100.00;96832.81;4992733;28;20047;-65
2022/02/18 05:02:14;;;;;;;48.20;25.35;;;;;;;1.13;100.00;96832.81;4988004;28;20047;-65
2022/02/18 05:04:40;;;;;;;44.85;19.17;;;;;;;1.14;100.00;96828.31;4971029;28;20070;-64
2022/02/18 05:07:06;;;;;;;43.15;18.85;;;;;;;1.14;100.00;96831.81;4987790;28;20174;-66
2022/02/18 05:09:32;;;;;;;42.08;20.52;;;;;;;1.14;100.00;96834.47;4985124;28;20097;-65
2022/02/18 05:11:58;;;;;;;44.30;23.02;;;;;;;1.15;100.00;96828.16;4956413;28;20046;-65
2022/02/18 05:14:24;;;;;;;43.00;22.90;;;;;;;1.17;100.00;96834.16;4973312;28;20125;-71
2022/02/18 05:16:50;;;;;;;38.85;17.38;;;;;;;1.17;100.00;96833.31;4965236;28;20047;-66
2022/02/18 05:19:16;;;;;;;36.80;17.33;;;;;;;1.16;100.00;96837.78;4987251;28;20042;-67
2022/02/18 05:21:41;;;;;;;35.53;20.23;;;;;;;1.16;100.00;96827.16;4974869;28;20054;-65
2022/02/18 05:24:08;;;;;;;35.05;18.58;;;;;;;1.19;100.00;96841.97;4970737;28;20085;-67
2022/02/18 05:26:34;;;;;;;34.25;16.73;;;;;;;1.21;100.00;96845.31;4948834;28;20135;-62
2022/02/18 05:29:00;;;;;;;32.30;17.10;;;;;;;1.16;100.00;96843.13;4973075;28;20418;-65
2022/02/18 05:31:26;;;;;;;32.63;18.65;;;;;;;1.25;100.00;96851.97;4991458;28;20034;-69
2022/02/18 05:33:52;;;;;;;32.17;15.00;;;;;;;1.21;100.00;96840.00;4956381;28;20048;-64
2022/02/18 05:36:21;;;;;;;35.45;17.63;;;;;;;1.27;100.00;96854.47;4992466;28;20085;-65
2022/02/18 05:38:47;;;;;;;30.75;16.02;;;;;;;1.25;100.00;96848.47;4939746;28;20110;-65
2022/02/18 05:41:13;;;;;;;28.92;14.85;;;;;;;1.26;100.00;96863.44;4971479;28;20107;-64
2022/02/18 05:43:39;;;;;;;28.40;16.33;;;;;;;1.25;100.00;96851.16;4953856;28;20118;-64
2022/02/18 05:46:05;;;;;;;29.05;13.60;;;;;;;1.28;100.00;96864.09;4981665;28;20141;-67
2022/02/18 05:48:31;;;;;;;28.73;15.13;;;;;;;1.26;100.00;96860.78;4957158;28;20134;-65
2022/02/18 05:50:58;;;;;;;28.77;15.15;;;;;;;1.27;100.00;96865.94;4977143;28;20069;-66
2022/02/18 05:53:24;;;;;;;28.70;14.80;;;;;;;1.29;100.00;96868.44;4994191;28;20050;-64
2022/02/18 05:55:51;;;;;;;26.33;11.52;;;;;;;1.28;100.00;96861.44;4972279;28;20094;-65
2022/02/18 05:58:19;;;;;;;23.92;13.57;;;;;;;1.25;100.00;96845.81;4987197;28;20038;-65
2022/02/18 06:00:45;;;;;;;26.85;13.70;;;;;;;1.29;100.00;96863.13;4949371;28;20046;-65
2022/02/18 06:03:10;;;;;;;29.77;14.48;;;;;;;1.28;100.00;96872.09;4986109;28;20486;-65
2022/02/18 06:05:36;;;;;;;27.13;13.73;;;;;;;1.30;100.00;96875.44;4950842;28;20042;-65
2022/02/18 06:08:02;;;;;;;25.85;12.32;;;;;;;1.30;100.00;96876.25;4952087;28;20450;-66
2022/02/18 06:10:28;;;;;;;24.80;13.07;;;;;;;1.32;100.00;96884.09;4976932;28;20043;-65
2022/02/18 06:12:54;;;;;;;25.85;15.95;;;;;;;1.31;100.00;96887.72;4953374;28;20046;-65
2022/02/18 06:15:20;;;;;;;27.27;14.40;;;;;;;1.33;100.00;96893.75;4977466;28;20407;-65
2022/02/18 06:17:46;;;;;;;26.35;14.48;;;;;;;1.28;100.00;96882.72;4974435;28;20061;-66
2022/02/18 06:20:13;;;;;;;27.58;12.82;;;;;;;1.32;100.00;96895.56;4941676;28;20490;-65
2022/02/18 06:22:39;;;;;;;28.15;16.63;;;;;;;1.13;100.00;96874.53;4978119;28;20084;-65
2022/02/18 06:25:07;;;;;;;24.33;13.57;;;;;;;1.30;100.00;96899.38;4947053;28;20049;-65
2022/02/18 06:27:33;;;;;;;28.17;14.07;;;;;;;1.35;100.00;96910.34;4990558;28;20062;-66
2022/02/18 06:29:58;;;;;;;29.70;13.73;;;;;;;1.34;100.00;96906.03;5001986;28;20052;-65
2022/02/18 06:32:29;;;;;;;26.13;13.52;;;;;;;1.11;100.00;96872.03;4961112;28;20557;-65
2022/02/18 06:34:55;;;;;;;28.38;14.70;;;;;;;1.37;100.00;96908.38;4946677;28;20042;-64
2022/02/18 06:37:21;;;;;;;21.50;11.07;;;;;;;1.44;100.00;96909.41;4970388;28;20437;-66
2022/02/18 06:39:47;;;;;;;31.27;15.18;;;;;;;1.30;100.00;96902.03;4984139;28;20061;-65
2022/02/18 06:42:13;;;;;;;27.05;14.65;;;;;;;1.45;100.00;96924.38;4945301;28;20069;-65
2022/02/18 06:44:39;;;;;;;28.27;14.52;;;;;;;1.50;100.00;96935.41;4965370;28;20503;-65
2022/02/18 06:47:05;;;;;;;26.58;12.90;;;;;;;1.40;100.00;96911.56;4971326;28;20078;-65
2022/02/18 06:49:30;;;;;;;28.58;17.60;;;;;;;1.45;100.00;96927.88;4941040;28;20140;-64
2022/02/18 06:51:56;;;;;;;24.65;12.50;;;;;;;1.51;100.00;96939.72;4955017;28;20042;-65
2022/02/18 06:54:26;;;;;;;31.85;11.73;;;;;;;1.50;100.00;96934.53;4956504;28;20097;-65
2022/02/18 06:56:52;;;;;;;29.42;13.23;;;;;;;1.47;100.00;96945.53;4956842;28;20078;-65
2022/02/18 06:59:19;;;;;;;25.02;12.13;;;;;;;1.44;100.00;96942.19;4974315;28;20042;-65
2022/02/18 07:01:47;;;;;;;26.85;12.52;;;;;;;1.49;100.00;96955.00;4976589;28;20070;-65
2022/02/18 07:04:13;;;;;;;30.20;12.50;;;;;;;1.49;100.00;96959.50;4967810;28;20145;-65
2022/02/18 07:06:39;;;;;;;24.25;10.80;;;;;;;1.49;100.00;96956.81;4975724;28;20434;-65
2022/02/18 07:09:08;;;;;;;37.10;15.88;;;;;;;1.47;100.00;96957.00;4973161;28;20582;-65
2022/02/18 07:11:34;;;;;;;25.40;13.30;;;;;;;1.51;100.00;96958.34;4974413;28;20058;-65
2022/02/18 07:14:00;;;;;;;26.63;13.25;;;;;;;1.51;100.00;96963.66;4991989;28;20047;-65
2022/02/18 07:16:26;;;;;;;20.75;10.32;;;;;;;1.53;100.00;96967.00;4962288;28;20058;-64
2022/02/18 07:18:52;;;;;;;26.50;12.35;;;;;;;1.57;100.00;96960.38;4970131;28;20043;-65
2022/02/18 07:21:17;;;;;;;20.42;9.98;;;;;;;1.57;100.00;96972.81;4979570;28;20058;-64
2022/02/18 07:23:43;;;;;;;23.85;12.65;;;;;;;1.54;100.00;96968.69;4958038;28;20070;-64
2022/02/18 07:26:10;;;;;;;24.58;11.88;;;;;;;1.60;100.00;96978.66;4965981;28;20127;-65
2022/02/18 07:28:36;;;;;;;22.80;12.82;;;;;;;1.63;100.00;96978.34;4990999;28;20058;-64
2022/02/18 07:31:02;;;;;;;22.85;10.32;;;;;;;1.44;100.00;96936.03;4975120;28;20450;-64
2022/02/18 07:33:28;;;;;;;23.95;11.48;;;;;;;1.72;100.00;96978.38;4998295;28;20461;-65
2022/02/18 07:35:54;;;;;;;23.48;11.73;;;;;;;1.72;100.00;96986.34;4985454;28;20124;-65
2022/02/18 07:38:20;;;;;;;23.75;11.48;;;;;;;1.60;100.00;96973.34;4973095;28;20046;-65
2022/02/18 07:40:46;;;;;;;23.05;11.43;;;;;;;1.66;100.00;96978.03;4966304;28;20057;-65
2022/02/18 07:43:12;;;;;;;26.33;12.02;;;;;;;1.71;100.00;96995.34;4993359;28;20426;-67
2022/02/18 07:45:38;;;;;;;27.20;13.25;;;;;;;1.67;100.00;96995.66;4955607;28;20046;-65
2022/02/18 07:48:04;;;;;;;23.52;11.35;;;;;;;1.68;100.00;97001.81;4978264;28;20043;-65
2022/02/18 07:50:30;;;;;;;27.00;12.88;;;;;;;1.67;100.00;96995.66;4988017;28;20045;-65
2022/02/18 07:52:56;;;;;;;23.65;11.60;;;;;;;1.62;100.00;96997.16;4959152;28;20069;-65
2022/02/18 07:55:22;;;;;;;23.02;11.32;;;;;;;1.69;100.00;97015.00;4974537;28;20105;-65
2022/02/18 07:57:48;;;;;;;21.65;10.23;;;;;;;1.78;100.00;97028.34;4974740;28;20100;-65
2022/02/18 08:00:14;;;;;;;23.73;11.55;;;;;;;1.77;100.00;97021.34;4959411;28;20164;-65
2022/02/18 08:02:40;;;;;;;24.00;12.18;;;;;;;1.77;100.00;97037.31;4977776;28;20043;-65
2022/02/18 08:05:06;;;;;;;21.83;12.63;;;;;;;1.67;100.00;97048.09;4977803;28;20061;-65
2022/02/18 08:07:32;;;;;;;22.63;11.20;;;;;;;1.62;100.00;97043.25;5002128;28;20065;-64
2022/02/18 08:09:58;;;;;;;15.68;6.80;;;;;;;1.48;100.00;97053.66;4971909;28;20066;-65
2022/02/18 08:12:24;;;;;;;9.65;3.88;;;;;;;1.39;100.00;97060.75;4974195;28;20053;-65
2022/02/18 08:14:50;;;;;;;10.50;3.90;;;;;;;1.45;100.00;97068.94;4956326;28;20046;-64
2022/02/18 08:17:16;;;;;;;9.20;3.40;;;;;;;1.47;100.00;97075.97;4985791;28;20120;-65
2022/02/18 08:19:42;;;;;;;11.73;4.05;;;;;;;1.56;100.00;97089.13;4967134;28;20057;-65
2022/02/18 08:22:08;;;;;;;8.25;3.13;;;;;;;1.47;100.00;97067.97;4956468;28;20066;-65
2022/02/18 08:24:34;;;;;;;8.27;2.90;;;;;;;1.55;100.00;97103.47;4955596;28;20050;-66
2022/02/18 08:27:01;;;;;;;8.90;3.45;;;;;;;1.68;100.00;97111.88;4980861;28;20050;-65
2022/02/18 08:29:27;;;;;;;9.43;3.80;;;;;;;1.74;100.00;97107.72;4956198;28;20180;-64
2022/02/18 08:31:54;;;;;;;8.52;2.97;;;;;;;1.93;100.00;97101.31;4950204;28;20202;-65
2022/02/18 08:34:22;;;;;;;8.23;2.90;;;;;;;2.20;100.00;97112.75;4955903;28;20115;-65
2022/02/18 08:36:48;;;;;;;7.97;3.53;;;;;;;2.26;100.00;97106.75;4971460;28;20093;-65
2022/02/18 08:39:15;;;;;;;9.88;3.92;;;;;;;2.60;100.00;97114.69;4957150;28;20049;-65
2022/02/18 08:41:41;;;;;;;7.57;2.50;;;;;;;2.74;99.39;97123.88;4993572;28;20051;-65
2022/02/18 08:44:07;;;;;;;9.18;2.40;;;;;;;2.86;98.01;97130.56;4954093;28;20034;-65
2022/02/18 08:46:34;;;;;;;10.73;2.63;;;;;;;2.90;97.48;97137.25;4956389;28;20133;-65
2022/02/18 08:49:00;;;;;;;7.07;2.72;;;;;;;2.79;96.54;97133.06;4955918;28;20529;-65
2022/02/18 08:51:26;;;;;;;9.93;2.53;;;;;;;2.97;96.62;97138.25;4947435;28;20057;-65
2022/02/18 08:53:53;;;;;;;7.40;2.40;;;;;;;2.89;95.27;97132.91;4998970;28;20130;-65
2022/02/18 08:56:18;;;;;;;7.97;2.50;;;;;;;3.08;94.68;97137.94;4960098;28;20053;-66
2022/02/18 08:58:45;;;;;;;6.78;2.30;;;;;;;3.06;92.57;97137.25;4952603;28;20043;-66
2022/02/18 09:01:11;;;;;;;8.50;2.08;;;;;;;3.10;92.84;97146.59;4959076;28;20121;-68
2022/02/18 09:03:38;;;;;;;9.73;2.35;;;;;;;3.28;92.04;97141.09;4978094;28;20344;-65
2022/02/18 09:06:04;;;;;;;6.15;2.05;;;;;;;3.36;91.14;97151.78;4967038;28;20550;-65
2022/02/18 09:08:30;;;;;;;7.28;2.50;;;;;;;4.14;88.50;97152.13;4973068;28;20057;-65
2022/02/18 09:10:56;;;;;;;8.70;2.63;;;;;;;4.40;86.08;97158.03;4959893;28;20122;-65
2022/02/18 09:13:25;;;;;;;8.73;3.55;;;;;;;4.35;85.81;97155.03;4929132;28;20058;-66
2022/02/18 09:15:51;;;;;;;7.13;1.90;;;;;;;4.31;85.43;97159.06;4977405;28;20124;-69
2022/02/18 09:18:22;;;;;;;5.70;2.22;;;;;;;6.13;80.43;97167.28;4970720;28;20889;-65
2022/02/18 09:20:48;;;;;;;7.63;2.00;;;;;;;6.71;72.74;97165.59;4967902;28;20157;-68
2022/02/18 09:23:15;;;;;;;11.25;2.05;;;;;;;6.76;72.25;97165.88;4977851;28;20101;-65
2022/02/18 09:25:42;;;;;;;6.18;2.33;;;;;;;5.65;76.05;97174.78;4959130;28;20053;-65
2022/02/18 09:28:08;;;;;;;6.05;1.85;;;;;;;6.61;73.89;97169.59;4984734;28;20521;-65
2022/02/18 09:30:37;;;;;;;6.78;1.85;;;;;;;5.60;75.60;97168.31;4974131;28;20137;-65
2022/02/18 09:33:03;;;;;;;7.75;1.98;;;;;;;4.77;78.78;97164.53;4963555;28;20043;-68
2022/02/18 09:35:29;;;;;;;5.13;1.58;;;;;;;4.74;79.75;97175.59;4935659;28;20139;-65
2022/02/18 09:37:56;;;;;;;8.23;1.80;;;;;;;4.64;81.43;97181.16;4951343;28;20091;-66
2022/02/18 09:40:22;;;;;;;6.80;1.67;;;;;;;4.03;81.70;97172.88;4988226;28;20038;-65
2022/02/18 09:42:48;;;;;;;6.75;1.92;;;;;;;4.04;82.66;97193.25;4944063;28;20137;-65
2022/02/18 09:45:15;;;;;;;8.75;1.92;;;;;;;3.81;84.32;97198.47;4943821;28;20412;-69
2022/02/18 09:47:42;;;;;;;6.55;1.80;;;;;;;3.85;83.76;97201.66;4950910;28;20055;-67
2022/02/18 09:50:10;;;;;;;6.35;2.35;;;;;;;3.49;86.02;97218.03;4960463;28;20153;-64
2022/02/18 09:52:36;;;;;;;8.13;2.28;;;;;;;3.34;87.20;97209.84;4973931;28;20049;-66
2022/02/18 09:55:03;;;;;;;6.45;1.80;;;;;;;2.99;87.57;97213.63;4956873;28;20046;-69
2022/02/18 09:57:30;;;;;;;6.13;1.80;;;;;;;2.95;88.88;97219.47;4976378;28;20042;-66
2022/02/18 09:59:56;;;;;;;8.13;1.80;;;;;;;2.86;89.08;97215.94;4955104;28;20050;-65
2022/02/18 10:02:22;;;;;;;7.10;2.40;;;;;;;2.92;89.10;97231.28;4959095;28;20049;-66
2022/02/18 10:04:48;;;;;;;8.82;1.80;;;;;;;3.19;87.79;97232.03;4975239;28;20071;-66
2022/02/18 10:07:15;;;;;;;7.25;2.25;;;;;;;4.45;83.16;97235.91;4961512;28;20043;-65
2022/02/18 10:09:43;;;;;;;7.63;1.88;;;;;;;4.91;79.82;97229.88;4955158;28;20047;-65
2022/02/18 10:12:10;;;;;;;6.30;1.75;;;;;;;4.53;79.09;97227.88;4959680;28;20105;-65
2022/02/18 10:14:59;;;;;;;7.28;2.20;;;;;;;5.78;75.98;97239.34;4957155;28;20073;-65
2022/02/18 10:17:38;;;;;;;7.25;1.90;;;;;;;7.05;69.47;97247.38;4965005;28;20100;-65
2022/02/18 10:20:23;;;;;;;6.75;2.10;;;;;;;7.01;66.79;97238.03;4987096;28;20055;-65
2022/02/18 10:23:00;;;;;;;5.70;2.00;;;;;;;8.74;60.06;97250.34;4989348;28;20186;-65
2022/02/18 10:25:31;;;;;;;7.00;2.30;;;;;;;8.72;59.18;97250.56;4982828;28;20146;-65
2022/02/18 10:27:57;;;;;;;6.38;1.80;;;;;;;8.06;60.14;97255.44;4980776;28;20046;-66
2022/02/18 10:30:28;;;;;;;5.63;1.70;;;;;;;8.12;60.51;97265.44;4970700;28;20394;-65
2022/02/18 10:33:13;;;;;;;6.38;1.58;;;;;;;7.76;62.40;97266.38;4976471;28;20065;-65
2022/02/18 10:35:40;;;;;;;5.65;1.67;;;;;;;7.14;64.14;97265.06;4997974;28;20145;-64
2022/02/18 10:38:07;;;;;;;5.20;1.50;;;;;;;6.68;64.64;97272.50;4980721;28;20049;-65
2022/02/18 10:40:44;;;;;;;6.65;1.90;;;;;;;5.61;67.78;97279.84;4971033;28;20050;-66
2022/02/18 10:43:12;;;;;;;4.85;1.33;;;;;;;4.91;71.04;97315.56;4956419;28;20129;-66
2022/02/18 10:45:55;;;;;;;5.88;1.50;;;;;;;3.79;74.14;97310.03;4974051;28;20055;-66
2022/02/18 10:48:23;;;;;;;8.25;1.30;;;;;;;3.48;76.20;97333.88;4977905;28;20085;-66
2022/02/18 10:51:05;;;;;;;5.90;1.13;;;;;;;3.45;75.81;97333.38;4962526;28;20157;-65
2022/02/18 10:53:38;;;;;;;5.82;1.20;;;;;;;3.21;74.19;97331.47;4993220;28;20050;-65
2022/02/18 10:56:05;;;;;;;6.38;1.58;;;;;;;3.11;75.94;97343.13;4953317;28;20514;-65
2022/02/18 10:58:36;;;;;;;7.38;1.67;;;;;;;2.90;75.87;97346.22;4975864;28;20047;-66
2022/02/18 11:01:05;;;;;;;8.25;1.70;;;;;;;2.84;75.59;97340.66;4978597;28;20058;-65
2022/02/18 11:03:31;;;;;;;10.63;2.28;;;;;;;2.81;74.61;97347.16;4976534;28;20098;-65
2022/02/18 11:06:10;;;;;;;7.32;1.73;;;;;;;2.59;73.39;97305.84;4977214;28;20057;-65
2022/02/18 11:08:37;;;;;;;7.03;1.55;;;;;;;3.02;72.49;97360.09;4969302;28;20035;-66
2022/02/18 11:11:09;;;;;;;6.60;1.50;;;;;;;3.46;72.31;97353.75;4980384;28;20059;-66
2022/02/18 11:13:36;;;;;;;7.53;1.80;;;;;;;3.44;71.15;97353.06;4974392;28;20053;-66
2022/02/18 11:16:03;;;;;;;7.05;1.73;;;;;;;3.41;71.45;97364.91;4958655;28;20047;-65
2022/02/18 11:18:29;;;;;;;8.30;1.95;;;;;;;3.57;72.04;97370.28;4958025;28;20058;-65
2022/02/18 11:20:56;;;;;;;8.25;1.65;;;;;;;3.51;70.72;97365.63;4970981;28;20042;-65
2022/02/18 11:23:22;;;;;;;8.77;2.58;;;;;;;3.55;71.65;97356.28;4977138;28;20515;-65
2022/02/18 11:25:48;;;;;;;7.53;1.80;;;;;;;3.94;70.19;97379.69;4962775;28;20069;-65